Eastern Sierra Regional Airport
KBIH : now visible

Aeroporto :











RITROVATECI SU...

 
LOGIN :

Iscrizione | Disclaimer

   EN    FR    IT 

 









Sommario :    VFR   VFR Marginale   IFR   IFR Intensivo   IFR Molto Intensivo
Visibilità : 
Base nubi : 
>= 8 km
>= 3000ft
5 / 8 km
1000 / 3000 ft
1500m / 5 km
500 / 1000 ft
800 / 1500m
200 / 500 ft
< 800m
< 200 ft
Simboli :   Temporali  Nebbia  Neve Forte  Precipitazioni Forti  Vento > 20 kt






- Altitudine del aeroporto : 4124 ft


KBIH - Eastern Sierra Regional

ULTIMO METAR :
  • 272056Z AUTO 33011G20KT 10SM CLR 18/M04 A3022 RMK AO2 SLP216 T01831044 58022

METARs OBSOLETI :
  • 271956Z AUTO VRB05KT 10SM CLR 17/M06 A3025 RMK AO2 SLP225 T01721056
  • 271856Z AUTO 20006KT 10SM CLR 14/M07 A3028 RMK AO2 SLP239 T01391072

TAF KBIH
Valido dal 27 a 18 ore il 28 a 18 ore UTC


271725Z 2718/2818 33011KT P6SM SCT100 BKN200
FM280300 33006KT P6SM FEW100 SCT150



MetMap, La meteo Aeronautica in un colpo d'occhio ! - Copyright ORBIFLY Dicembre 2007 - Disclaimer

ORBIFLY MET'MAP TEAM :

Programmazione e sviluppo : Alexandra Zaïnal
Concezione : Baudouin d'Aumeries
Aiuto per la programmazione : Marc-Olivier Méhu
Supporto tecnico e logistico : Manuel Goepfert
Aiuto per la traduzione : Arnaldo La Scala

Contatto : metmap@orbifly.com




FONTI E CREDITI :

   NOAA       Earth
Advisory